Time;durP1;ratioP1;P1;durP2;ratioP2;P2;SDS_P1;SDS_P2;PMS_P1;PMS_P2;Temp;Humidity;BMP_temperature;BMP_pressure;BME280_temperature;BME280_humidity;BME280_pressure;Samples;Min_cycle;Max_cycle;Signal;HPM_P1;HPM_P2
2022/07/29 00:01:05;;;;;;;;;6.00;6.00;;;;;20.50;40.13;100677.03;5015386;28;45224;-77
2022/07/29 00:03:30;;;;;;;;;8.50;8.50;;;;;20.42;40.28;100674.13;5018232;28;45170;-77
2022/07/29 00:05:56;;;;;;;;;9.00;9.00;;;;;20.42;40.49;100669.63;5018122;28;45242;-74
2022/07/29 00:08:21;;;;;;;;;10.50;10.50;;;;;20.38;40.32;100667.34;5000323;28;45632;-73
2022/07/29 00:10:47;;;;;;;;;7.00;7.00;;;;;20.35;40.72;100671.09;5018157;28;47708;-77
2022/07/29 00:13:12;;;;;;;;;7.00;7.00;;;;;20.28;40.48;100654.72;5017772;28;45343;-72
2022/07/29 00:15:37;;;;;;;;;8.25;8.25;;;;;20.29;40.38;100655.56;5017848;28;45341;-67
2022/07/29 00:18:03;;;;;;;;;8.00;8.00;;;;;20.28;40.68;100646.72;5017247;28;45416;-67
2022/07/29 00:20:29;;;;;;;;;9.50;9.50;;;;;20.25;41.34;100646.97;5014918;28;45532;-69
2022/07/29 00:22:54;;;;;;;;;8.25;8.25;;;;;20.19;41.00;100652.81;5012156;28;45357;-68
2022/07/29 00:25:19;;;;;;;;;7.25;7.25;;;;;20.08;41.39;100642.97;5009075;28;45383;-68
2022/07/29 00:27:45;;;;;;;;;7.75;7.75;;;;;20.04;41.20;100643.31;5006279;28;45493;-68
2022/07/29 00:30:11;;;;;;;;;8.00;7.00;;;;;19.99;41.52;100641.84;5005028;28;45610;-66
2022/07/29 00:32:36;;;;;;;;;6.75;6.75;;;;;19.97;41.28;100651.81;4999996;28;45290;-66
2022/07/29 00:37:46;;;;;;;;;6.75;6.75;;;;;19.89;42.42;100640.84;5010474;28;46618;-67
2022/07/29 00:40:12;;;;;;;;;6.75;6.75;;;;;19.84;41.95;100638.56;5000717;28;46215;-67
2022/07/29 00:42:44;;;;;;;;;1.50;1.50;;;;;19.83;41.93;100636.00;5017035;28;45277;-66
2022/07/29 00:45:11;;;;;;;;;8.25;8.25;;;;;19.78;42.09;100635.50;5017221;28;45352;-67
2022/07/29 00:47:36;;;;;;;;;7.75;7.75;;;;;19.74;42.06;100632.25;5032083;28;45903;-66
2022/07/29 00:50:03;;;;;;;;;8.25;8.25;;;;;19.75;42.10;100627.75;5014104;28;48024;-67
2022/07/29 00:52:29;;;;;;;;;7.75;7.50;;;;;19.70;42.51;100626.28;5017095;28;45450;-66
2022/07/29 00:54:54;;;;;;;;;5.00;5.00;;;;;19.68;42.65;100628.22;5017123;28;45293;-65
2022/07/29 00:57:20;;;;;;;;;8.75;8.75;;;;;19.50;42.75;100611.00;5017191;28;45560;-66
2022/07/29 00:59:45;;;;;;;;;9.00;9.00;;;;;19.64;42.38;100628.59;5014917;28;46013;-68
2022/07/29 01:02:10;;;;;;;;;9.00;9.00;;;;;19.67;42.35;100626.53;5016901;28;45390;-67
2022/07/29 01:04:36;;;;;;;;;9.25;9.25;;;;;19.68;42.61;100632.75;5018568;28;45293;-68
2022/07/29 01:07:02;;;;;;;;;8.00;8.00;;;;;19.66;42.88;100630.19;5019229;28;45244;-69
2022/07/29 01:09:29;;;;;;;;;9.00;9.00;;;;;19.65;42.91;100625.81;5015776;28;45308;-66
2022/07/29 01:11:54;;;;;;;;;9.00;9.00;;;;;19.68;42.96;100633.56;5015357;28;45287;-69
2022/07/29 01:14:21;;;;;;;;;11.50;10.50;;;;;19.66;43.40;100629.34;5016004;28;45328;-66
2022/07/29 01:17:02;;;;;;;;;11.25;10.75;;;;;19.67;43.21;100631.03;5016561;28;45265;-67
2022/07/29 01:19:49;;;;;;;;;11.00;11.00;;;;;19.65;43.34;100636.47;5015064;28;48026;-66
2022/07/29 01:22:34;;;;;;;;;10.00;10.00;;;;;19.62;42.88;100627.88;5016289;28;45412;-66
2022/07/29 01:25:23;;;;;;;;;10.25;10.25;;;;;19.59;43.00;100628.94;5016436;28;45332;-67
2022/07/29 01:28:11;;;;;;;;;9.00;9.00;;;;;19.54;43.43;100636.47;5014987;28;45392;-68
2022/07/29 01:30:39;;;;;;;;;10.25;10.25;;;;;19.50;43.13;100635.00;5013977;28;47603;-67
2022/07/29 01:33:48;;;;;;;;;7.25;7.25;;;;;19.46;43.56;100634.38;5016483;28;45407;-66
2022/07/29 01:36:06;;;;;;;;;10.00;10.00;;;;;19.45;43.39;100642.50;5016335;28;45466;-69
2022/07/29 01:38:33;;;;;;;;;9.25;8.00;;;;;19.38;43.82;100629.66;5014921;28;45451;-65
2022/07/29 01:41:08;;;;;;;;;8.25;8.25;;;;;19.40;43.79;100640.19;5015726;28;46096;-68
2022/07/29 01:43:43;;;;;;;;;9.00;9.00;;;;;19.38;43.42;100637.66;5013947;28;45392;-66
2022/07/29 01:46:14;;;;;;;;;10.50;10.50;;;;;19.37;43.53;100641.28;5017072;28;45384;-68
2022/07/29 01:48:46;;;;;;;;;8.25;8.25;;;;;19.36;43.99;100639.59;5015660;28;45494;-65
2022/07/29 01:51:19;;;;;;;;;10.25;10.25;;;;;19.34;44.19;100636.19;5016030;28;46665;-66
2022/07/29 01:53:59;;;;;;;;;10.50;10.50;;;;;19.36;44.00;100644.91;5015141;28;45343;-66
2022/07/29 01:56:30;;;;;;;;;8.25;8.25;;;;;19.35;43.79;100642.34;5007025;28;45251;-66
2022/07/29 01:58:57;;;;;;;;;8.25;8.25;;;;;19.34;44.46;100643.31;5016392;28;45404;-68
2022/07/29 02:01:24;;;;;;;;;9.50;9.50;;;;;19.37;43.89;100656.41;5015828;28;45307;-66
2022/07/29 02:03:53;;;;;;;;;9.75;9.75;;;;;19.37;44.14;100654.63;5015311;28;45760;-67
2022/07/29 02:06:22;;;;;;;;;7.75;7.75;;;;;19.32;43.91;100642.59;4996223;28;45372;-67
2022/07/29 02:08:49;;;;;;;;;8.75;8.75;;;;;19.36;44.15;100657.38;4996016;28;45356;-66
2022/07/29 02:11:16;;;;;;;;;8.75;8.75;;;;;19.36;44.27;100658.25;4995922;28;46368;-66
2022/07/29 02:13:43;;;;;;;;;9.75;9.75;;;;;19.36;44.10;100650.25;4995717;28;45337;-66
2022/07/29 02:16:10;;;;;;;;;10.75;9.25;;;;;19.24;44.03;100628.03;5029604;28;45649;-66
2022/07/29 02:18:38;;;;;;;;;8.00;8.00;;;;;19.36;43.86;100652.06;5014950;28;45466;-68
2022/07/29 02:21:04;;;;;;;;;7.25;7.25;;;;;19.34;43.88;100649.53;5015612;28;45569;-68
2022/07/29 02:23:32;;;;;;;;;7.00;7.00;;;;;19.32;43.93;100646.13;5014439;28;45478;-66
2022/07/29 02:25:58;;;;;;;;;6.75;6.75;;;;;19.32;44.05;100647.94;5015001;28;45454;-66
2022/07/29 02:28:27;;;;;;;;;7.00;7.00;;;;;19.34;43.80;100646.84;5015832;28;45482;-66
2022/07/29 02:30:55;;;;;;;;;7.00;7.00;;;;;19.34;43.95;100646.84;5015145;28;45531;-65
2022/07/29 02:33:23;;;;;;;;;6.00;6.00;;;;;19.33;43.95;100644.28;5013867;28;45392;-67
2022/07/29 02:35:49;;;;;;;;;7.00;7.00;;;;;19.30;43.98;100642.72;5014487;28;45742;-66
2022/07/29 02:41:05;;;;;;;;;7.00;7.00;;;;;19.32;44.20;100647.94;5015025;28;45481;-67
2022/07/29 02:43:34;;;;;;;;;9.25;8.50;;;;;19.31;44.34;100651.56;5015204;28;45423;-66
2022/07/29 02:46:02;;;;;;;;;10.00;10.00;;;;;19.26;44.79;100652.75;5014739;28;45377;-66
2022/07/29 02:48:36;;;;;;;;;6.50;6.50;;;;;19.25;44.38;100652.88;5014732;28;45159;-66
2022/07/29 02:51:08;;;;;;;;;9.75;9.75;;;;;19.21;44.61;100646.09;5015162;28;46590;-66
2022/07/29 02:53:35;;;;;;;;;9.75;9.75;;;;;19.22;44.70;100653.13;5013639;28;45448;-65
2022/07/29 02:56:07;;;;;;;;;8.75;8.75;;;;;19.21;44.98;100651.44;5013413;28;45447;-65
2022/07/29 02:58:46;;;;;;;;;6.75;6.75;;;;;19.18;44.54;100652.50;5016690;28;45257;-66
2022/07/29 03:01:19;;;;;;;;;7.00;6.75;;;;;19.06;44.74;100622.25;5015418;28;45276;-66
2022/07/29 03:03:48;;;;;;;;;7.50;7.50;;;;;19.19;44.12;100648.84;5015056;28;45442;-67
2022/07/29 03:06:15;;;;;;;;;7.00;7.00;;;;;19.19;44.86;100648.84;5014157;28;45232;-66
2022/07/29 03:08:42;;;;;;;;;8.75;8.75;;;;;19.18;44.24;100654.31;5015471;28;45549;-65
2022/07/29 03:11:08;;;;;;;;;5.00;5.00;;;;;19.19;44.83;100650.69;5014723;28;45538;-67
2022/07/29 03:13:35;;;;;;;;;5.50;5.50;;;;;19.13;44.74;100657.31;5014902;28;45316;-66
2022/07/29 03:16:01;;;;;;;;;7.75;7.75;;;;;19.15;44.66;100662.56;5013850;28;45514;-67
2022/07/29 03:18:27;;;;;;;;;5.25;5.25;;;;;19.16;44.84;100665.09;5014727;28;45467;-66
2022/07/29 03:20:52;;;;;;;;;8.25;8.25;;;;;19.12;45.01;100664.50;5014789;28;45363;-67
2022/07/29 03:23:20;;;;;;;;;7.75;7.75;;;;;19.15;44.92;100667.88;5014716;28;45311;-68
2022/07/29 03:25:46;;;;;;;;;7.50;7.50;;;;;19.10;44.91;100666.41;5014248;28;45270;-67
2022/07/29 03:28:11;;;;;;;;;7.75;7.75;;;;;19.08;44.71;100663.00;5015577;28;45570;-69
2022/07/29 03:30:37;;;;;;;;;8.50;8.50;;;;;19.10;44.85;100668.22;5012694;28;47178;-67
2022/07/29 03:33:02;;;;;;;;;7.00;7.00;;;;;19.08;45.12;100668.31;5013430;28;45464;-71
2022/07/29 03:35:28;;;;;;;;;12.25;12.00;;;;;19.06;45.02;100667.59;5015801;28;45277;-67
2022/07/29 03:37:53;;;;;;;;;9.75;9.75;;;;;19.08;44.84;100670.97;5018615;28;45517;-66
2022/07/29 03:40:31;;;;;;;;;7.00;7.00;;;;;19.12;44.87;100672.47;5017473;28;46120;-66
2022/07/29 03:42:58;;;;;;;;;7.50;7.50;;;;;19.16;44.49;100672.25;5017779;28;45319;-67
2022/07/29 03:45:26;;;;;;;;;9.25;9.25;;;;;19.17;44.78;100671.28;5032902;28;45371;-68
2022/07/29 03:47:57;;;;;;;;;8.50;8.50;;;;;19.17;45.23;100664.13;5018440;28;45290;-68
2022/07/29 03:50:23;;;;;;;;;9.00;9.00;;;;;19.20;44.82;100669.22;5016889;28;45623;-70
2022/07/29 03:52:49;;;;;;;;;8.50;7.00;;;;;19.18;44.73;100667.66;5017760;28;45346;-67
2022/07/29 03:55:15;;;;;;;;;9.25;9.25;;;;;19.17;45.26;100660.63;5017599;28;45385;-67
2022/07/29 03:57:42;;;;;;;;;6.00;6.00;;;;;19.17;44.96;100681.94;5017564;28;45586;-67
2022/07/29 04:00:08;;;;;;;;;11.25;11.25;;;;;19.16;44.79;100674.91;5016852;28;46432;-68
2022/07/29 04:02:35;;;;;;;;;8.00;8.00;;;;;19.13;45.11;100670.66;5017545;28;45342;-67
2022/07/29 04:05:00;;;;;;;;;7.00;7.00;;;;;19.11;44.83;100673.44;5016586;28;45311;-66
2022/07/29 04:07:26;;;;;;;;;8.25;8.25;;;;;19.12;45.37;100675.16;5017753;28;45521;-66
2022/07/29 04:09:51;;;;;;;;;8.00;8.00;;;;;19.12;45.47;100682.28;5016744;28;45916;-66
2022/07/29 04:12:17;;;;;;;;;11.50;11.50;;;;;19.09;45.16;100683.38;5016995;28;45390;-67
2022/07/29 04:14:42;;;;;;;;;8.75;8.75;;;;;19.08;45.61;100684.31;5017282;28;45368;-66
2022/07/29 04:17:07;;;;;;;;;8.00;8.00;;;;;19.06;45.66;100680.06;5017783;28;45431;-66
2022/07/29 04:19:33;;;;;;;;;10.75;10.75;;;;;19.09;45.64;100686.03;5016643;28;46264;-67
2022/07/29 04:21:59;;;;;;;;;11.75;11.75;;;;;19.08;45.59;100680.81;5016846;28;45247;-68
2022/07/29 04:24:25;;;;;;;;;10.00;10.00;;;;;19.09;45.89;100679.84;5016528;28;45301;-67
2022/07/29 04:26:51;;;;;;;;;8.25;8.25;;;;;19.07;46.01;100682.63;5017328;28;45618;-68
2022/07/29 04:29:16;;;;;;;;;12.00;12.00;;;;;19.11;45.97;100691.25;5016875;28;45249;-67
2022/07/29 04:31:42;;;;;;;;;11.50;11.50;;;;;19.11;46.20;100685.91;5017331;28;45333;-67
2022/07/29 04:34:07;;;;;;;;;12.00;12.00;;;;;19.08;46.66;100678.16;5017761;28;45438;-66
2022/07/29 04:36:33;;;;;;;;;14.25;14.25;;;;;19.12;46.34;100687.63;5015870;28;45455;-67
2022/07/29 04:38:58;;;;;;;;;10.50;10.00;;;;;19.20;46.50;100687.06;5015996;28;46087;-66
2022/07/29 04:41:24;;;;;;;;;12.75;12.75;;;;;19.23;47.26;100693.00;5016930;28;45443;-68
2022/07/29 04:43:49;;;;;;;;;10.00;10.00;;;;;19.25;46.49;100687.56;5017080;28;45312;-65
2022/07/29 04:46:15;;;;;;;;;14.75;14.75;;;;;19.29;46.88;100690.81;5015801;28;45600;-66
2022/07/29 04:48:40;;;;;;;;;14.75;14.75;;;;;19.32;46.78;100693.25;5016889;28;45408;-67
2022/07/29 04:51:06;;;;;;;;;14.00;14.00;;;;;19.32;46.80;100696.78;5016515;28;45353;-66
2022/07/29 04:53:31;;;;;;;;;13.00;13.00;;;;;19.35;46.92;100696.56;5016626;28;45402;-67
2022/07/29 04:55:56;;;;;;;;;12.00;12.00;;;;;19.37;46.97;100702.63;5016618;28;45316;-66
2022/07/29 04:58:23;;;;;;;;;13.00;13.00;;;;;19.41;47.03;100701.44;5017276;28;46093;-68
2022/07/29 05:00:49;;;;;;;;;10.50;10.50;;;;;19.45;47.43;100703.88;5016311;28;45723;-67
2022/07/29 05:03:14;;;;;;;;;14.00;14.00;;;;;19.49;47.08;100708.00;5017339;28;45447;-68
2022/07/29 05:05:40;;;;;;;;;13.00;13.00;;;;;19.54;47.10;100705.81;5016217;28;45183;-66
2022/07/29 05:08:06;;;;;;;;;11.75;11.75;;;;;19.62;47.13;100706.09;5016010;28;46199;-67
2022/07/29 05:10:32;;;;;;;;;14.75;14.75;;;;;19.67;47.01;100698.59;5015810;28;45270;-67
2022/07/29 05:12:57;;;;;;;;;11.75;11.75;;;;;19.82;46.59;100701.03;5016096;28;45577;-67
2022/07/29 05:15:23;;;;;;;;;14.75;14.75;;;;;19.93;46.11;100692.22;5015904;28;45691;-67
2022/07/29 05:17:48;;;;;;;;;10.75;10.75;;;;;20.13;46.48;100701.31;5015137;28;47883;-67
2022/07/29 05:20:13;;;;;;;;;11.00;11.00;;;;;20.39;45.64;100701.09;5016197;28;45431;-66
2022/07/29 05:22:39;;;;;;;;;8.75;8.75;;;;;20.61;44.95;100691.34;5015997;28;45332;-65
2022/07/29 05:25:04;;;;;;;;;12.00;12.00;;;;;20.91;44.50;100708.56;5016166;28;46287;-66
2022/07/29 05:27:30;;;;;;;;;10.00;10.00;;;;;21.17;43.92;100701.88;5016029;28;46366;-66
2022/07/29 05:29:56;;;;;;;;;10.75;10.50;;;;;21.43;43.47;100698.88;5015069;28;45446;-67
2022/07/29 05:32:21;;;;;;;;;8.75;8.75;;;;;21.60;42.89;100697.44;5016522;28;45344;-66
2022/07/29 05:34:46;;;;;;;;;9.75;9.75;;;;;21.72;42.62;100700.94;5014308;28;45709;-66
2022/07/29 05:37:13;;;;;;;;;13.00;13.00;;;;;21.78;41.73;100704.06;4995819;28;45310;-66
2022/07/29 05:39:38;;;;;;;;;8.75;8.75;;;;;21.77;42.06;100707.72;5001570;28;45375;-67
2022/07/29 05:42:08;;;;;;;;;10.00;10.00;;;;;21.76;41.92;100714.03;5015157;28;45282;-68
2022/07/29 05:44:36;;;;;;;;;11.25;11.00;;;;;21.70;41.97;100710.91;5012585;28;45587;-67
2022/07/29 05:47:02;;;;;;;;;11.50;11.50;;;;;21.71;41.99;100715.28;5031199;28;47562;-66
2022/07/29 05:49:27;;;;;;;;;11.50;11.50;;;;;21.70;42.10;100713.59;5015286;28;46103;-67
2022/07/29 05:51:53;;;;;;;;;10.50;10.50;;;;;21.68;42.36;100714.69;5015945;28;47203;-65
2022/07/29 05:54:18;;;;;;;;;17.50;17.50;;;;;21.70;42.74;100726.13;5015282;28;45628;-66
2022/07/29 05:56:43;;;;;;;;;13.25;13.25;;;;;21.76;42.32;100720.25;5014405;28;46003;-67
2022/07/29 05:59:09;;;;;;;;;17.00;17.00;;;;;21.69;42.28;100724.41;5014565;28;48521;-65
2022/07/29 06:01:38;;;;;;;;;15.00;15.00;;;;;21.65;42.52;100723.84;5015298;28;45347;-66
2022/07/29 06:04:04;;;;;;;;;14.75;14.75;;;;;21.62;43.00;100732.09;5014652;28;45514;-66
2022/07/29 06:06:29;;;;;;;;;14.25;14.25;;;;;21.59;42.92;100727.84;5014591;28;45404;-66
2022/07/29 06:08:55;;;;;;;;;13.50;13.50;;;;;21.55;42.86;100726.41;5015862;28;45435;-66
2022/07/29 06:11:20;;;;;;;;;16.00;16.00;;;;;21.56;43.63;100740.66;5016175;28;45450;-67
2022/07/29 06:13:45;;;;;;;;;17.75;17.75;;;;;21.55;43.38;100736.28;5014530;28;45360;-66
2022/07/29 06:16:11;;;;;;;;;14.50;14.50;;;;;21.55;43.57;100741.63;5014533;28;45353;-66
2022/07/29 06:18:36;;;;;;;;;17.00;15.75;;;;;21.62;43.41;100748.16;5014578;28;45531;-65
2022/07/29 06:21:06;;;;;;;;;17.00;17.00;;;;;21.72;43.71;100749.13;5015555;28;45464;-66
2022/07/29 06:23:32;;;;;;;;;16.00;16.00;;;;;21.81;43.14;100746.63;5014634;28;45327;-68
2022/07/29 06:25:57;;;;;;;;;15.75;15.75;;;;;21.87;42.89;100740.75;5015394;28;45375;-66
2022/07/29 06:28:23;;;;;;;;;14.75;14.75;;;;;21.91;42.74;100747.53;5016035;28;45945;-69
2022/07/29 06:30:48;;;;;;;;;13.00;13.00;;;;;21.88;41.93;100751.34;5015863;28;45322;-68
2022/07/29 06:33:18;;;;;;;;;14.00;14.00;;;;;21.80;42.42;100740.44;5012555;28;45390;-68
2022/07/29 06:35:45;;;;;;;;;12.50;12.00;;;;;21.72;41.45;100743.75;5014387;28;45570;-67
2022/07/29 06:38:11;;;;;;;;;12.00;12.00;;;;;21.59;41.40;100741.22;5015193;28;45316;-66
2022/07/29 06:43:20;;;;;;;;;11.00;11.00;;;;;21.45;42.10;100742.41;5015466;28;45321;-74
2022/07/29 06:45:46;;;;;;;;;11.00;11.00;;;;;21.44;42.10;100751.41;5016941;28;46691;-75
2022/07/29 06:48:11;;;;;;;;;7.25;7.25;;;;;21.46;41.62;100751.28;5049275;28;45309;-75
2022/07/29 06:50:37;;;;;;;;;9.00;9.00;;;;;21.51;41.74;100758.94;5019775;28;45229;-72
2022/07/29 06:53:03;;;;;;;;;7.75;7.75;;;;;21.51;41.63;100753.56;5016742;28;45483;-72
2022/07/29 06:55:28;;;;;;;;;9.00;9.00;;;;;21.47;41.01;100757.50;5015247;28;45373;-72
2022/07/29 06:57:53;;;;;;;;;11.75;11.75;;;;;21.49;41.39;100760.88;5015170;28;45330;-73
2022/07/29 07:00:19;;;;;;;;;9.75;9.75;;;;;21.51;41.65;100767.78;5016000;28;45364;-74
2022/07/29 07:02:44;;;;;;;;;9.75;9.75;;;;;21.55;42.17;100755.84;5015407;28;45433;-72
2022/07/29 07:05:10;;;;;;;;;17.00;15.75;;;;;21.65;41.75;100758.66;5014812;28;46032;-73
2022/07/29 07:07:35;;;;;;;;;17.25;15.00;;;;;21.70;41.58;100760.91;5014706;28;45548;-72
2022/07/29 07:10:01;;;;;;;;;12.25;12.25;;;;;21.73;41.95;100768.69;5013564;28;45375;-72
2022/07/29 07:12:26;;;;;;;;;12.75;12.75;;;;;21.76;41.75;100768.47;5013404;28;45641;-72
2022/07/29 07:14:51;;;;;;;;;9.50;9.50;;;;;21.81;42.10;100773.41;5014872;28;46387;-73
2022/07/29 07:17:17;;;;;;;;;11.25;11.25;;;;;21.86;42.16;100768.50;5013271;28;45423;-73
2022/07/29 07:19:42;;;;;;;;;10.00;10.00;;;;;21.90;41.84;100775.28;5013608;28;45402;-72
2022/07/29 07:22:07;;;;;;;;;16.00;14.75;;;;;21.93;41.56;100775.03;5014406;28;45668;-70
2022/07/29 07:24:33;;;;;;;;;13.50;13.50;;;;;21.95;41.77;100775.75;5012640;28;45213;-73
2022/07/29 07:26:58;;;;;;;;;11.50;11.50;;;;;21.99;41.68;100779.03;5014173;28;45174;-71
2022/07/29 07:29:24;;;;;;;;;12.25;12.25;;;;;22.04;41.95;100780.31;5013556;28;45393;-72
2022/07/29 07:31:49;;;;;;;;;13.75;13.75;;;;;22.11;41.82;100785.13;5013170;28;45650;-71
2022/07/29 07:34:15;;;;;;;;;14.50;14.50;;;;;22.13;41.93;100785.84;5011806;28;45938;-72
2022/07/29 07:36:40;;;;;;;;;12.50;12.50;;;;;22.21;41.73;100788.72;5014217;28;45414;-76
2022/07/29 07:39:06;;;;;;;;;12.50;12.50;;;;;22.26;41.76;100789.16;5012991;28;45479;-73
2022/07/29 07:41:31;;;;;;;;;12.75;12.75;;;;;22.31;41.35;100780.75;5014093;28;45519;-77
2022/07/29 07:43:56;;;;;;;;;6.00;4.50;;;;;22.37;41.42;100782.06;5015295;28;45625;-72
2022/07/29 07:46:22;;;;;;;;;12.75;12.75;;;;;22.46;41.44;100794.69;5015262;28;45305;-77
2022/07/29 07:48:47;;;;;;;;;13.00;13.00;;;;;22.52;41.28;100788.78;5015237;28;45341;-76
2022/07/29 07:51:13;;;;;;;;;10.25;10.25;;;;;22.57;41.03;100785.69;5015427;28;45320;-72
2022/07/29 07:53:38;;;;;;;;;7.75;7.75;;;;;22.61;40.83;100787.97;5014562;28;46637;-72
2022/07/29 07:56:06;;;;;;;;;9.25;9.25;;;;;22.69;40.68;100783.75;5014674;28;45435;-72
2022/07/29 07:58:31;;;;;;;;;9.50;9.50;;;;;22.75;40.65;100783.22;5012912;28;45401;-71
2022/07/29 08:00:56;;;;;;;;;8.25;8.25;;;;;22.83;40.54;100783.38;5014603;28;45575;-72
2022/07/29 08:03:22;;;;;;;;;9.00;8.00;;;;;22.89;40.01;100784.69;5014079;28;46873;-73
2022/07/29 08:05:48;;;;;;;;;7.00;7.00;;;;;22.97;39.91;100786.66;5013954;28;45334;-73
2022/07/29 08:08:13;;;;;;;;;13.75;13.75;;;;;23.03;40.27;100781.59;5013933;28;45274;-74
2022/07/29 08:10:55;;;;;;;;;4.00;4.00;;;;;23.17;39.99;100785.69;5014840;28;45556;-73
2022/07/29 08:13:23;;;;;;;;;7.00;7.00;;;;;23.20;39.61;100788.09;5014196;28;45487;-72
2022/07/29 08:15:57;;;;;;;;;7.50;7.50;;;;;23.32;38.88;100785.31;5015367;28;45784;-73
2022/07/29 08:18:24;;;;;;;;;6.00;6.00;;;;;23.43;39.16;100792.41;5014346;28;45267;-72
2022/07/29 08:20:50;;;;;;;;;8.75;8.75;;;;;23.60;38.14;100786.31;5013868;28;45249;-75
2022/07/29 08:23:15;;;;;;;;;7.50;7.50;;;;;23.82;37.82;100795.06;5015122;28;45443;-74
2022/07/29 08:25:41;;;;;;;;;9.25;7.50;;;;;23.93;36.50;100773.44;5015802;28;46044;-72
2022/07/29 08:28:07;;;;;;;;;8.00;8.00;;;;;24.08;36.76;100789.13;5016509;28;45399;-73
2022/07/29 08:30:33;;;;;;;;;10.50;10.50;;;;;24.20;37.32;100789.78;5017797;28;45580;-74
2022/07/29 08:32:59;;;;;;;;;9.25;9.25;;;;;24.39;36.98;100788.00;5017691;28;45344;-74
2022/07/29 08:35:25;;;;;;;;;9.75;9.75;;;;;24.52;36.61;100783.19;5016357;28;45336;-76
2022/07/29 08:37:51;;;;;;;;;7.00;7.00;;;;;24.65;36.03;100788.19;5017705;28;45367;-74
2022/07/29 08:40:17;;;;;;;;;8.50;8.50;;;;;24.75;35.53;100793.56;5021016;28;45366;-73
2022/07/29 08:42:44;;;;;;;;;7.75;7.75;;;;;24.79;36.09;100792.28;5022021;28;46193;-73
2022/07/29 08:45:10;;;;;;;;;11.00;9.50;;;;;24.81;35.78;100792.97;5022786;28;45290;-70
2022/07/29 08:47:39;;;;;;;;;7.50;7.50;;;;;24.87;35.84;100796.88;5023653;28;45181;-74
2022/07/29 08:50:07;;;;;;;;;8.00;8.00;;;;;24.87;35.69;100797.75;5018143;28;45328;-72
2022/07/29 08:52:36;;;;;;;;;7.00;7.00;;;;;24.87;34.86;100791.50;5017049;28;45400;-72
2022/07/29 08:55:03;;;;;;;;;6.00;6.00;;;;;24.88;34.76;100788.69;5017170;28;45584;-73
2022/07/29 08:57:30;;;;;;;;;6.25;6.25;;;;;24.93;34.90;100791.75;5017116;28;45466;-73
2022/07/29 08:59:59;;;;;;;;;6.50;6.25;;;;;24.99;35.47;100790.34;5016472;28;45645;-77
2022/07/29 09:02:28;;;;;;;;;6.50;6.50;;;;;25.04;34.85;100789.84;5017224;28;45375;-74
2022/07/29 09:04:55;;;;;;;;;6.50;6.50;;;;;25.08;34.74;100793.94;5017335;28;45427;-73
2022/07/29 09:07:20;;;;;;;;;5.00;5.00;;;;;25.09;34.14;100782.19;5018486;28;45309;-77
2022/07/29 09:09:46;;;;;;;;;3.00;3.00;;;;;25.17;34.27;100787.63;5027128;28;45643;-79
2022/07/29 09:12:12;;;;;;;;;5.00;5.00;;;;;25.25;33.69;100794.97;5026470;28;46420;-76
2022/07/29 09:14:38;;;;;;;;;4.50;4.50;;;;;25.32;34.02;100796.03;5020598;28;45369;-71
2022/07/29 09:17:05;;;;;;;;;4.75;4.75;;;;;25.38;33.74;100795.44;5033172;28;45359;-73
2022/07/29 09:19:36;;;;;;;;;6.25;6.25;;;;;25.34;34.12;100777.03;5016541;28;45207;-74
2022/07/29 09:22:04;;;;;;;;;5.25;5.25;;;;;25.51;34.11;100789.69;5017695;28;45672;-73
2022/07/29 09:24:33;;;;;;;;;6.00;6.00;;;;;25.58;34.09;100795.28;5016263;28;45320;-72
2022/07/29 09:26:58;;;;;;;;;6.00;6.00;;;;;25.66;33.61;100797.22;5017437;28;45463;-72
2022/07/29 09:29:25;;;;;;;;;6.00;6.00;;;;;25.66;33.68;100795.38;5017083;28;45332;-72
2022/07/29 09:31:52;;;;;;;;;4.25;4.25;;;;;25.73;33.75;100797.44;5016578;28;46083;-71
2022/07/29 09:34:30;;;;;;;;;6.50;6.50;;;;;25.79;33.80;100789.59;5015978;28;45220;-72
2022/07/29 09:36:55;;;;;;;;;6.75;6.75;;;;;25.88;33.72;100790.47;5016137;28;45282;-73
2022/07/29 09:39:38;;;;;;;;;7.00;7.00;;;;;25.87;34.12;100796.88;5016358;28;45608;-77
2022/07/29 09:42:05;;;;;;;;;7.00;7.00;;;;;25.80;33.86;100790.41;5016784;28;46032;-72
2022/07/29 09:44:45;;;;;;;;;6.25;6.25;;;;;25.75;33.82;100801.69;5017085;28;45274;-74
2022/07/29 09:47:11;;;;;;;;;6.75;6.75;;;;;25.74;33.95;100797.28;5016642;28;45448;-74
2022/07/29 09:49:57;;;;;;;;;6.00;6.00;;;;;25.86;34.08;100792.47;5016719;28;45468;-74
2022/07/29 09:52:23;;;;;;;;;6.00;6.00;;;;;25.99;34.01;100794.78;5016377;28;46287;-74
2022/07/29 09:54:49;;;;;;;;;7.00;7.00;;;;;26.08;33.91;100788.44;5016244;28;45370;-73
2022/07/29 09:57:25;;;;;;;;;5.75;5.00;;;;;26.17;34.04;100793.91;5016315;28;45328;-72
2022/07/29 10:00:00;;;;;;;;;8.00;8.00;;;;;26.28;34.00;100795.50;5016480;28;45266;-71
2022/07/29 10:02:34;;;;;;;;;5.00;5.00;;;;;26.40;33.94;100797.72;5014892;28;48313;-73
2022/07/29 10:05:01;;;;;;;;;6.50;6.50;;;;;26.54;33.89;100793.59;5015202;28;45416;-73
2022/07/29 10:08:02;;;;;;;;;5.75;5.75;;;;;26.67;33.28;100790.47;5016200;28;45357;-72
2022/07/29 10:10:30;;;;;;;;;5.75;5.75;;;;;26.80;33.24;100783.75;5015778;28;45516;-75
2022/07/29 10:12:57;;;;;;;;;7.00;7.00;;;;;26.91;33.34;100791.59;5015758;28;45286;-71
2022/07/29 10:15:24;;;;;;;;;10.50;10.50;;;;;27.00;33.10;100787.03;5015928;28;45544;-76
2022/07/29 10:17:51;;;;;;;;;8.75;8.00;;;;;27.13;32.73;100783.88;5015896;28;45428;-75
2022/07/29 10:20:17;;;;;;;;;10.00;9.50;;;;;27.21;33.04;100785.75;5016240;28;45464;-79
2022/07/29 10:22:43;;;;;;;;;6.50;6.50;;;;;27.30;32.33;100790.16;5016225;28;46441;-73
2022/07/29 10:25:10;;;;;;;;;6.75;6.75;;;;;27.27;32.51;100783.22;5015982;28;45359;-76
2022/07/29 10:27:36;;;;;;;;;6.25;6.25;;;;;27.33;32.09;100780.84;5015058;28;45288;-76
2022/07/29 10:30:04;;;;;;;;;7.00;7.00;;;;;27.42;31.97;100794.22;5016600;28;45235;-75
2022/07/29 10:32:39;;;;;;;;;9.00;9.00;;;;;27.41;31.65;100787.13;5016610;28;45642;-72
2022/07/29 10:35:23;;;;;;;;;6.00;6.00;;;;;27.41;31.88;100788.97;5016709;28;45453;-74
2022/07/29 10:38:24;;;;;;;;;4.25;4.25;;;;;27.48;31.83;100795.38;5020380;28;45508;-72
2022/07/29 10:41:28;;;;;;;;;8.50;8.50;;;;;27.58;31.64;100792.56;5023746;28;45206;-71
2022/07/29 10:44:09;;;;;;;;;6.50;6.50;;;;;27.59;31.36;100785.31;5020216;28;46214;-74
2022/07/29 10:46:39;;;;;;;;;5.75;5.75;;;;;27.63;31.52;100787.50;5031112;28;45436;-76
2022/07/29 10:49:13;;;;;;;;;5.00;5.00;;;;;27.70;31.22;100791.19;5016124;28;45265;-74
2022/07/29 10:52:07;;;;;;;;;4.25;4.25;;;;;27.75;30.75;100798.81;5015657;28;45408;-72
2022/07/29 10:54:41;;;;;;;;;5.00;5.00;;;;;27.82;31.25;100791.72;5015681;28;46139;-75
2022/07/29 10:57:16;;;;;;;;;8.50;8.50;;;;;27.92;30.76;100793.38;5015376;28;45374;-72
2022/07/29 11:00:08;;;;;;;;;4.50;4.50;;;;;27.96;30.20;100794.72;5013753;28;45328;-77
2022/07/29 11:02:34;;;;;;;;;5.50;5.50;;;;;28.00;30.06;100798.78;5014448;28;45324;-76
2022/07/29 11:05:03;;;;;;;;;4.75;4.75;;;;;28.04;30.19;100791.16;5015569;28;46145;-76
2022/07/29 11:07:29;;;;;;;;;4.75;4.75;;;;;28.00;30.21;100786.09;5047706;28;45387;-76
2022/07/29 11:10:13;;;;;;;;;7.75;7.75;;;;;28.20;30.27;100793.88;5015722;28;45389;-74
2022/07/29 11:12:38;;;;;;;;;7.00;5.00;;;;;28.34;30.33;100794.19;5015553;28;45349;-76
2022/07/29 11:15:05;;;;;;;;;3.75;3.75;;;;;28.38;30.47;100784.69;5015878;28;46201;-77
2022/07/29 11:17:49;;;;;;;;;4.50;4.50;;;;;28.48;30.15;100789.88;5013620;28;45448;-74
2022/07/29 11:20:45;;;;;;;;;3.00;3.00;;;;;28.55;29.55;100789.03;5014377;28;45409;-77
2022/07/29 11:23:20;;;;;;;;;9.00;5.75;;;;;28.60;29.59;100785.78;5015405;28;45460;-72
2022/07/29 11:26:15;;;;;;;;;8.75;8.75;;;;;28.73;29.81;100779.81;5014833;28;45414;-74
2022/07/29 11:28:51;;;;;;;;;9.25;9.25;;;;;28.84;29.65;100789.44;5014717;28;45234;-73
2022/07/29 11:31:19;;;;;;;;;4.25;4.25;;;;;28.81;29.65;100781.69;5014789;28;45309;-75
2022/07/29 11:33:45;;;;;;;;;3.25;3.25;;;;;28.92;29.20;100794.81;5015032;28;45372;-74